Boulder Creek, California
Current Conditions -  °F | °C
As of 3:53 PM on Saturday 25 Oct 2014 (Local Time) from KSJC Reporting Station
Scattered Clouds Scattered Clouds  
Wind Chill: 69°   Ceiling: Unl
Heat Index: 69°   Visibility: 10mi
Dew Point: 49°   Wind: 6mph
Humidity: 49%   Direction: NA
Pressure: 30.06"   Gusts: NA
Location:  37.13°N, 122.12°W
Report Text: KSJC 252253Z VRB05KT 10SM FEW024 SCT046 SCT065 21/09 A3006 RMK AO2 SLP179 T02060094
Loading
Personal Weather Stations






























Interactive Weather Map
Tropical Storm Tracking
New forecast layout! Learn more

10-Day Weather Forecast

Advertisements
Track Severe Weather on mobile